createdAt,value
2022-12-04T00:03:40.310Z,2.10
2022-12-04T00:07:47.994Z,2.05
2022-12-04T00:11:55.705Z,2.08
2022-12-04T00:16:05.034Z,2.13
2022-12-04T00:20:14.348Z,2.13
2022-12-04T00:24:22.108Z,2.09
2022-12-04T00:28:30.011Z,2.05
2022-12-04T00:32:37.910Z,2.02
2022-12-04T00:36:45.452Z,2.03
2022-12-04T00:40:54.541Z,2.05
2022-12-04T00:45:02.455Z,2.08
2022-12-04T00:49:10.866Z,2.08
2022-12-04T00:53:19.474Z,2.03
2022-12-04T00:57:27.777Z,2.01
2022-12-04T01:01:35.923Z,1.98
2022-12-04T01:05:45.916Z,2.01
2022-12-04T01:09:54.041Z,2.02
2022-12-04T01:14:02.079Z,2.05
2022-12-04T01:18:09.953Z,2.05
2022-12-04T01:22:18.223Z,2.04
2022-12-04T01:26:26.239Z,2.00
2022-12-04T01:30:34.182Z,1.97
2022-12-04T01:34:41.602Z,1.95
2022-12-04T01:38:49.691Z,1.94
2022-12-04T01:42:57.412Z,1.93
2022-12-04T01:47:05.284Z,1.90
2022-12-04T01:51:15.168Z,1.84
2022-12-04T01:55:22.636Z,1.75
2022-12-04T01:59:34.110Z,1.70
2022-12-04T02:03:42.250Z,1.70
2022-12-04T02:07:52.862Z,1.72
2022-12-04T02:12:08.219Z,1.74
2022-12-04T02:16:21.564Z,1.75
2022-12-04T02:20:35.142Z,1.73
2022-12-04T02:24:52.161Z,1.71
2022-12-04T02:29:03.473Z,1.74
2022-12-04T02:33:18.352Z,1.79
2022-12-04T02:37:31.751Z,1.84
2022-12-04T02:41:44.359Z,1.82
2022-12-04T02:45:57.398Z,1.77
2022-12-04T02:50:12.311Z,1.71
2022-12-04T02:54:24.234Z,1.67
2022-12-04T02:58:35.804Z,1.68
2022-12-04T03:02:48.106Z,1.70
2022-12-04T03:06:57.715Z,1.72
2022-12-04T03:11:06.549Z,1.68
2022-12-04T03:15:19.315Z,1.62
2022-12-04T03:19:28.558Z,1.55
2022-12-04T03:23:39.863Z,1.45
2022-12-04T03:27:53.190Z,1.40
2022-12-04T03:32:05.631Z,1.38
2022-12-04T03:36:18.214Z,1.36
2022-12-04T03:40:30.394Z,1.31
2022-12-04T03:44:43.122Z,1.24
2022-12-04T03:48:54.194Z,1.16
2022-12-04T03:53:08.491Z,1.10
2022-12-04T03:57:19.356Z,1.09
2022-12-04T04:01:31.882Z,1.09
2022-12-04T04:05:42.112Z,1.10
2022-12-04T04:09:52.011Z,1.05
2022-12-04T04:14:20.235Z,0.99
2022-12-04T04:18:45.837Z,0.90
2022-12-04T04:23:13.992Z,0.86
2022-12-04T04:27:21.369Z,0.88
2022-12-04T04:31:34.224Z,0.92
2022-12-04T04:35:51.664Z,0.96
2022-12-04T04:40:06.082Z,0.96
2022-12-04T04:44:20.816Z,0.94
2022-12-04T04:48:31.602Z,0.90
2022-12-04T04:52:42.013Z,0.89
2022-12-04T04:56:50.485Z,0.89
2022-12-04T05:01:02.566Z,0.91
2022-12-04T05:05:11.619Z,0.95
2022-12-04T05:09:19.525Z,0.96
2022-12-04T05:13:26.930Z,0.97
2022-12-04T05:17:34.904Z,0.95
2022-12-04T05:21:42.909Z,0.91
2022-12-04T05:25:50.663Z,0.88
2022-12-04T05:29:59.442Z,0.88
2022-12-04T05:34:07.112Z,0.86
2022-12-04T05:38:14.856Z,0.83
2022-12-04T05:42:23.048Z,0.79
2022-12-04T05:46:30.398Z,0.76
2022-12-04T05:50:38.425Z,0.72
2022-12-04T05:54:46.002Z,0.72
2022-12-04T05:58:54.003Z,0.76
2022-12-04T06:03:01.878Z,0.83
2022-12-04T06:07:10.744Z,0.83
2022-12-04T06:11:21.624Z,0.81
2022-12-04T06:15:29.384Z,0.78
2022-12-04T06:19:37.078Z,0.75
2022-12-04T06:23:45.233Z,0.74
2022-12-04T06:27:52.836Z,0.75
2022-12-04T06:32:00.469Z,0.77
2022-12-04T06:36:10.330Z,0.81
2022-12-04T06:40:18.336Z,0.81
2022-12-04T06:44:26.462Z,0.74
2022-12-04T06:48:34.351Z,0.71
2022-12-04T06:52:42.069Z,0.71
2022-12-04T06:56:51.522Z,0.73
2022-12-04T07:01:07.351Z,0.80
2022-12-04T07:05:15.030Z,0.84
2022-12-04T07:09:24.854Z,0.88
2022-12-04T07:13:33.298Z,0.93
2022-12-04T07:17:40.960Z,0.94
2022-12-04T07:21:48.691Z,0.96
2022-12-04T07:25:56.515Z,0.99
2022-12-04T07:30:04.090Z,1.02
2022-12-04T07:34:11.908Z,1.02
2022-12-04T07:38:19.860Z,1.02
2022-12-04T07:42:27.377Z,1.03
2022-12-04T07:46:34.875Z,1.06
2022-12-04T07:50:42.926Z,1.12
2022-12-04T07:54:50.967Z,1.14
2022-12-04T07:59:00.541Z,1.16
2022-12-04T08:03:08.446Z,1.18
2022-12-04T08:07:16.456Z,1.14
2022-12-04T08:11:25.981Z,1.11
2022-12-04T08:15:35.150Z,1.17
2022-12-04T08:19:43.150Z,1.26
2022-12-04T08:23:52.323Z,1.33
2022-12-04T08:27:59.854Z,1.38
2022-12-04T08:32:07.584Z,1.39
2022-12-04T08:36:17.018Z,1.40
2022-12-04T08:40:24.635Z,1.39
2022-12-04T08:44:32.562Z,1.39
2022-12-04T08:48:40.307Z,1.40
2022-12-04T08:52:49.719Z,1.43
2022-12-04T08:56:57.885Z,1.48
2022-12-04T09:01:11.176Z,1.50
2022-12-04T09:05:19.322Z,1.53
2022-12-04T09:09:27.674Z,1.58
2022-12-04T09:13:36.435Z,1.68
2022-12-04T09:17:44.660Z,1.82
2022-12-04T09:21:52.605Z,1.98
2022-12-04T09:26:00.906Z,2.10
2022-12-04T09:30:12.083Z,2.18
2022-12-04T09:34:20.177Z,2.25
2022-12-04T09:38:28.632Z,2.31
2022-12-04T09:42:45.376Z,2.46
2022-12-04T09:46:56.390Z,2.66
2022-12-04T09:51:05.281Z,2.85
2022-12-04T09:55:20.199Z,3.00
2022-12-04T09:59:30.023Z,3.12
2022-12-04T10:03:46.432Z,3.20
2022-12-04T10:08:05.109Z,3.30
2022-12-04T10:12:25.131Z,3.43
2022-12-04T10:16:39.528Z,3.58
2022-12-04T10:21:04.148Z,3.70
2022-12-04T10:25:17.123Z,3.74
2022-12-04T10:29:27.511Z,3.72
2022-12-04T10:33:39.719Z,3.75
2022-12-04T10:37:56.306Z,3.83
2022-12-04T10:42:22.323Z,3.93
2022-12-04T10:46:31.992Z,4.04
2022-12-04T10:50:41.003Z,4.11
2022-12-04T10:54:53.828Z,4.15
2022-12-04T10:59:05.367Z,4.18
2022-12-04T11:03:31.225Z,4.24
2022-12-04T11:07:45.684Z,4.29
2022-12-04T11:11:54.125Z,4.37
2022-12-04T11:16:02.322Z,4.43
2022-12-04T11:20:19.612Z,4.45
2022-12-04T11:24:31.351Z,4.37
2022-12-04T11:28:42.356Z,4.28
2022-12-04T11:32:51.900Z,4.24
2022-12-04T11:37:00.287Z,4.29
2022-12-04T11:41:27.303Z,4.33
2022-12-04T11:45:38.388Z,4.32
2022-12-04T11:49:45.686Z,4.31
2022-12-04T11:53:56.314Z,4.35
2022-12-04T11:58:21.768Z,4.40
2022-12-04T12:02:52.190Z,4.49
2022-12-04T12:07:16.823Z,4.55
2022-12-04T12:11:28.256Z,4.57
2022-12-04T12:15:42.063Z,4.59
2022-12-04T12:20:01.485Z,4.64
2022-12-04T12:24:28.980Z,4.65
2022-12-04T12:28:53.636Z,4.67
2022-12-04T12:33:11.641Z,4.70
2022-12-04T12:37:24.485Z,4.74
2022-12-04T12:41:36.211Z,4.82
2022-12-04T12:45:49.648Z,4.94
2022-12-04T12:50:08.802Z,4.97
2022-12-04T12:54:30.044Z,4.94
2022-12-04T12:58:43.383Z,4.90
2022-12-04T13:02:53.821Z,4.88
2022-12-04T13:07:21.040Z,4.88
2022-12-04T13:11:31.020Z,4.88
2022-12-04T13:15:42.918Z,4.88
2022-12-04T13:19:54.082Z,4.84
2022-12-04T13:24:22.082Z,4.81
2022-12-04T13:28:38.090Z,4.76
2022-12-04T13:33:21.433Z,4.73
2022-12-04T13:37:40.872Z,4.70
2022-12-04T13:41:57.436Z,4.65
2022-12-04T13:46:06.323Z,4.59
2022-12-04T13:50:30.461Z,4.52
2022-12-04T13:54:38.985Z,4.49
2022-12-04T13:58:46.465Z,4.45
2022-12-04T14:02:56.867Z,4.40
2022-12-04T14:07:06.699Z,4.33
2022-12-04T14:11:19.606Z,4.24
2022-12-04T14:15:30.720Z,4.14
2022-12-04T14:19:42.886Z,4.08
2022-12-04T14:23:51.138Z,4.02
2022-12-04T14:28:00.254Z,3.98
2022-12-04T14:32:15.563Z,3.92
2022-12-04T14:36:25.799Z,3.84
2022-12-04T14:40:38.031Z,3.74
2022-12-04T14:44:48.847Z,3.67
2022-12-04T14:49:02.041Z,3.63
2022-12-04T14:53:20.544Z,3.61
2022-12-04T14:57:39.617Z,3.56
2022-12-04T15:01:50.925Z,3.50
2022-12-04T15:06:07.542Z,3.44
2022-12-04T15:10:39.900Z,3.41
2022-12-04T15:14:48.716Z,3.41
2022-12-04T15:18:58.909Z,3.42
2022-12-04T15:23:07.175Z,3.42
2022-12-04T15:27:16.306Z,3.35
2022-12-04T15:31:27.981Z,3.25
2022-12-04T15:35:36.583Z,3.14
2022-12-04T15:39:45.411Z,3.05
2022-12-04T15:43:52.803Z,2.98
2022-12-04T15:48:00.202Z,2.94
2022-12-04T15:52:17.447Z,2.91
2022-12-04T15:56:25.832Z,2.84
2022-12-04T16:00:36.503Z,2.74
2022-12-04T16:04:45.713Z,2.64
2022-12-04T16:08:54.708Z,2.55
2022-12-04T16:13:04.948Z,2.51
2022-12-04T16:17:13.822Z,2.48
2022-12-04T16:21:24.384Z,2.43
2022-12-04T16:25:32.255Z,2.40
2022-12-04T16:29:39.864Z,2.41
2022-12-04T16:33:47.177Z,2.43
2022-12-04T16:37:54.844Z,2.48
2022-12-04T16:42:02.906Z,2.50
2022-12-04T16:46:16.837Z,2.50
2022-12-04T16:50:24.471Z,2.45
2022-12-04T16:54:32.134Z,2.44
2022-12-04T16:58:39.877Z,2.46
2022-12-04T17:02:48.791Z,2.52
2022-12-04T17:06:56.892Z,2.56
2022-12-04T17:11:05.031Z,2.56
2022-12-04T17:15:15.030Z,2.59
2022-12-04T17:19:22.516Z,2.58
2022-12-04T17:23:29.844Z,2.56
2022-12-04T17:27:38.210Z,2.58
2022-12-04T17:31:46.072Z,2.60
2022-12-04T17:35:54.738Z,2.61
2022-12-04T17:40:03.698Z,2.62
2022-12-04T17:44:12.522Z,2.65
2022-12-04T17:48:21.111Z,2.66
2022-12-04T17:52:28.627Z,2.64
2022-12-04T17:56:37.390Z,2.61
2022-12-04T18:00:45.283Z,2.59
2022-12-04T18:04:52.903Z,2.62
2022-12-04T18:09:01.508Z,2.66
2022-12-04T18:13:09.570Z,2.68
2022-12-04T18:17:17.850Z,2.67
2022-12-04T18:21:26.515Z,2.67
2022-12-04T18:25:36.064Z,2.63
2022-12-04T18:29:43.490Z,2.62
2022-12-04T18:33:52.545Z,2.64
2022-12-04T18:38:00.510Z,2.68
2022-12-04T18:42:08.816Z,2.74
2022-12-04T18:46:17.971Z,2.76
2022-12-04T18:50:26.070Z,2.74
2022-12-04T18:54:33.942Z,2.73
2022-12-04T18:58:43.016Z,2.71
2022-12-04T19:02:52.476Z,2.73
2022-12-04T19:07:00.766Z,2.75
2022-12-04T19:11:13.424Z,2.76
2022-12-04T19:15:21.774Z,2.74
2022-12-04T19:19:31.810Z,2.68
2022-12-04T19:23:41.636Z,2.62
2022-12-04T19:27:50.192Z,2.56
2022-12-04T19:31:59.426Z,2.52
2022-12-04T19:36:09.173Z,2.51
2022-12-04T19:40:17.984Z,2.48
2022-12-04T19:44:47.878Z,2.44
2022-12-04T19:48:54.553Z,2.38
2022-12-04T19:53:05.132Z,2.35
2022-12-04T19:57:13.824Z,2.35
2022-12-04T20:01:25.165Z,2.35
2022-12-04T20:05:33.237Z,2.34
2022-12-04T20:09:40.681Z,2.31
2022-12-04T20:13:49.559Z,2.27
2022-12-04T20:17:58.420Z,2.27
2022-12-04T20:22:05.633Z,2.29
2022-12-04T20:26:16.143Z,2.31
2022-12-04T20:30:23.744Z,2.35
2022-12-04T20:34:31.768Z,2.35
2022-12-04T20:38:40.971Z,2.33
2022-12-04T20:42:48.506Z,2.33
2022-12-04T20:46:56.035Z,2.35
2022-12-04T20:51:07.472Z,2.35
2022-12-04T20:55:15.344Z,2.35
2022-12-04T20:59:24.074Z,2.33
2022-12-04T21:03:32.690Z,2.31
2022-12-04T21:07:41.129Z,2.31
2022-12-04T21:11:50.227Z,2.31
2022-12-04T21:16:05.642Z,2.30
2022-12-04T21:20:14.538Z,2.32
2022-12-04T21:24:23.978Z,2.34
2022-12-04T21:28:31.768Z,2.32
2022-12-04T21:32:39.332Z,2.29
2022-12-04T21:36:48.115Z,2.26
2022-12-04T21:40:56.057Z,2.23
2022-12-04T21:45:06.010Z,2.21
2022-12-04T21:49:13.842Z,2.22
2022-12-04T21:53:21.965Z,2.26
2022-12-04T21:57:30.914Z,2.30
2022-12-04T22:01:40.048Z,2.31
2022-12-04T22:05:47.658Z,2.28
2022-12-04T22:09:55.452Z,2.25
2022-12-04T22:14:03.557Z,2.25
2022-12-04T22:18:13.028Z,2.24
2022-12-04T22:22:20.573Z,2.24
2022-12-04T22:26:29.606Z,2.27
2022-12-04T22:30:38.238Z,2.30
2022-12-04T22:34:45.692Z,2.31
2022-12-04T22:39:08.683Z,2.28
2022-12-04T22:43:18.961Z,2.30
2022-12-04T22:47:26.924Z,2.32
2022-12-04T22:51:34.774Z,2.34
2022-12-04T22:55:42.772Z,2.39
2022-12-04T22:59:50.505Z,2.41
2022-12-04T23:03:58.135Z,2.42
2022-12-04T23:08:06.191Z,2.45
2022-12-04T23:12:15.225Z,2.48
2022-12-04T23:16:23.850Z,2.49
2022-12-04T23:20:34.207Z,2.54
2022-12-04T23:24:41.997Z,2.55
2022-12-04T23:28:50.376Z,2.51
2022-12-04T23:32:58.376Z,2.49
2022-12-04T23:37:07.765Z,2.51
2022-12-04T23:41:16.935Z,2.54
2022-12-04T23:45:24.464Z,2.58
2022-12-04T23:49:32.394Z,2.60
2022-12-04T23:53:39.962Z,2.60
2022-12-04T23:57:47.922Z,2.56
